sensor_id;sensor_type;location;lat;lon;timestamp;pressure;altitude;pressure_sealevel;temperature;humidity
12073;BME280;6098;49.004;8.372;2022-12-29T00:06:29;99845.81;;;12.68;63.37
12073;BME280;6098;49.004;8.372;2022-12-29T00:21:21;99842.97;;;12.71;63.54
12073;BME280;6098;49.004;8.372;2022-12-29T00:36:32;99852.53;;;12.74;63.58
12073;BME280;6098;49.004;8.372;2022-12-29T00:51:25;99859.06;;;12.84;64.14
12073;BME280;6098;49.004;8.372;2022-12-29T01:06:16;99863.22;;;12.66;67.66
12073;BME280;6098;49.004;8.372;2022-12-29T01:21:06;99856.75;;;12.46;68.61
12073;BME280;6098;49.004;8.372;2022-12-29T01:35:59;99850.27;;;12.51;67.74
12073;BME280;6098;49.004;8.372;2022-12-29T01:50:52;99852.72;;;12.55;67.29
12073;BME280;6098;49.004;8.372;2022-12-29T02:36:03;99831.28;;;12.42;67.45
12073;BME280;6098;49.004;8.372;2022-12-29T02:50:55;99805.11;;;12.43;67.63
12073;BME280;6098;49.004;8.372;2022-12-29T03:36:23;99778.50;;;12.51;66.98
12073;BME280;6098;49.004;8.372;2022-12-29T03:51:11;99739.43;;;12.45;66.03
12073;BME280;6098;49.004;8.372;2022-12-29T04:06:02;99741.56;;;12.54;64.87
12073;BME280;6098;49.004;8.372;2022-12-29T04:20:54;99717.30;;;12.53;65.29
12073;BME280;6098;49.004;8.372;2022-12-29T04:35:54;99708.02;;;12.52;64.64
12073;BME280;6098;49.004;8.372;2022-12-29T04:50:46;99711.82;;;12.55;64.62
12073;BME280;6098;49.004;8.372;2022-12-29T05:05:38;99716.23;;;12.63;65.25
12073;BME280;6098;49.004;8.372;2022-12-29T05:20:29;99711.87;;;12.62;66.14
12073;BME280;6098;49.004;8.372;2022-12-29T05:35:52;99693.77;;;12.61;66.85
12073;BME280;6098;49.004;8.372;2022-12-29T05:50:41;99711.94;;;12.68;66.55
12073;BME280;6098;49.004;8.372;2022-12-29T06:05:32;99704.80;;;12.62;66.75
12073;BME280;6098;49.004;8.372;2022-12-29T06:20:23;99706.39;;;12.72;65.84
12073;BME280;6098;49.004;8.372;2022-12-29T06:35:15;99676.55;;;12.89;64.21
12073;BME280;6098;49.004;8.372;2022-12-29T06:50:06;99663.47;;;12.86;63.87
12073;BME280;6098;49.004;8.372;2022-12-29T07:04:57;99669.69;;;12.85;63.26
12073;BME280;6098;49.004;8.372;2022-12-29T07:19:49;99674.34;;;12.89;62.90
12073;BME280;6098;49.004;8.372;2022-12-29T07:34:40;99684.42;;;12.91;62.13
12073;BME280;6098;49.004;8.372;2022-12-29T07:49:31;99689.25;;;12.92;61.83
12073;BME280;6098;49.004;8.372;2022-12-29T08:04:22;99706.94;;;13.08;60.41
12073;BME280;6098;49.004;8.372;2022-12-29T08:19:13;99744.03;;;13.18;60.34
12073;BME280;6098;49.004;8.372;2022-12-29T08:34:04;99754.01;;;13.36;59.95
12073;BME280;6098;49.004;8.372;2022-12-29T08:48:56;99751.45;;;13.49;59.65
12073;BME280;6098;49.004;8.372;2022-12-29T09:04:01;99760.74;;;13.57;59.54
12073;BME280;6098;49.004;8.372;2022-12-29T09:18:49;99780.12;;;13.67;60.10
12073;BME280;6098;49.004;8.372;2022-12-29T09:33:40;99789.61;;;13.78;60.65
12073;BME280;6098;49.004;8.372;2022-12-29T09:48:33;99796.59;;;13.94;61.32
12073;BME280;6098;49.004;8.372;2022-12-29T10:03:24;99814.61;;;14.05;62.43
12073;BME280;6098;49.004;8.372;2022-12-29T10:18:23;99843.13;;;13.89;65.53
12073;BME280;6098;49.004;8.372;2022-12-29T10:33:18;99841.81;;;13.67;68.43
12073;BME280;6098;49.004;8.372;2022-12-29T10:48:12;99841.72;;;13.75;67.65
12073;BME280;6098;49.004;8.372;2022-12-29T11:18:36;99825.77;;;13.97;65.67
12073;BME280;6098;49.004;8.372;2022-12-29T11:33:27;99839.05;;;14.18;64.39
12073;BME280;6098;49.004;8.372;2022-12-29T11:48:18;99832.59;;;14.15;63.84
12073;BME280;6098;49.004;8.372;2022-12-29T12:03:23;99813.42;;;14.24;63.06
12073;BME280;6098;49.004;8.372;2022-12-29T12:18:40;99808.27;;;14.49;61.45
12073;BME280;6098;49.004;8.372;2022-12-29T12:33:35;99816.05;;;14.39;61.80
12073;BME280;6098;49.004;8.372;2022-12-29T12:48:42;99808.25;;;14.28;62.89
12073;BME280;6098;49.004;8.372;2022-12-29T13:19:05;99790.59;;;14.19;64.27
12073;BME280;6098;49.004;8.372;2022-12-29T13:34:11;99812.28;;;13.85;67.85
12073;BME280;6098;49.004;8.372;2022-12-29T13:48:59;99829.51;;;13.35;71.99
12073;BME280;6098;49.004;8.372;2022-12-29T14:18:43;99856.83;;;12.13;86.73
12073;BME280;6098;49.004;8.372;2022-12-29T14:33:37;99863.39;;;11.63;87.25
12073;BME280;6098;49.004;8.372;2022-12-29T14:48:32;99872.41;;;11.43;89.90
12073;BME280;6098;49.004;8.372;2022-12-29T15:18:31;99901.66;;;11.42;90.04
12073;BME280;6098;49.004;8.372;2022-12-29T15:33:26;99899.27;;;11.27;91.09
12073;BME280;6098;49.004;8.372;2022-12-29T15:48:23;99917.48;;;11.17;91.94
12073;BME280;6098;49.004;8.372;2022-12-29T16:03:27;99928.97;;;11.18;92.19
12073;BME280;6098;49.004;8.372;2022-12-29T16:18:35;99947.30;;;11.13;92.65
12073;BME280;6098;49.004;8.372;2022-12-29T16:48:20;99955.67;;;11.14;93.67
12073;BME280;6098;49.004;8.372;2022-12-29T17:03:10;99961.02;;;11.12;92.14
12073;BME280;6098;49.004;8.372;2022-12-29T17:18:01;99976.66;;;11.09;92.18
12073;BME280;6098;49.004;8.372;2022-12-29T17:32:53;99995.16;;;11.01;91.69
12073;BME280;6098;49.004;8.372;2022-12-29T17:47:44;100017.23;;;11.02;92.04
12073;BME280;6098;49.004;8.372;2022-12-29T18:02:34;100006.47;;;10.95;90.58
12073;BME280;6098;49.004;8.372;2022-12-29T18:17:26;99999.58;;;10.91;90.75
12073;BME280;6098;49.004;8.372;2022-12-29T18:32:17;99995.13;;;10.83;89.83
12073;BME280;6098;49.004;8.372;2022-12-29T18:47:08;100006.89;;;10.77;90.36
12073;BME280;6098;49.004;8.372;2022-12-29T19:01:59;100005.52;;;10.59;92.39
12073;BME280;6098;49.004;8.372;2022-12-29T19:16:50;100016.11;;;10.49;93.73
12073;BME280;6098;49.004;8.372;2022-12-29T19:31:41;100007.61;;;10.42;94.29
12073;BME280;6098;49.004;8.372;2022-12-29T19:46:31;100016.69;;;10.36;93.45
12073;BME280;6098;49.004;8.372;2022-12-29T20:01:23;100017.58;;;10.36;93.07
12073;BME280;6098;49.004;8.372;2022-12-29T20:16:14;100047.05;;;10.29;92.58
12073;BME280;6098;49.004;8.372;2022-12-29T20:31:05;100070.02;;;10.28;92.34
12073;BME280;6098;49.004;8.372;2022-12-29T20:45:55;100069.73;;;10.25;91.93
12073;BME280;6098;49.004;8.372;2022-12-29T21:00:47;100089.18;;;10.24;91.29
12073;BME280;6098;49.004;8.372;2022-12-29T21:15:42;100096.83;;;10.21;89.89
12073;BME280;6098;49.004;8.372;2022-12-29T21:30:31;100110.60;;;10.18;89.00
12073;BME280;6098;49.004;8.372;2022-12-29T21:45:22;100124.50;;;10.14;88.47
12073;BME280;6098;49.004;8.372;2022-12-29T22:00:19;100127.97;;;10.15;87.77
12073;BME280;6098;49.004;8.372;2022-12-29T22:15:35;100145.90;;;10.07;87.61
12073;BME280;6098;49.004;8.372;2022-12-29T22:30:28;100178.38;;;10.13;86.16
12073;BME280;6098;49.004;8.372;2022-12-29T22:45:21;100214.47;;;10.16;84.96
12073;BME280;6098;49.004;8.372;2022-12-29T23:00:12;100236.77;;;10.21;83.54
12073;BME280;6098;49.004;8.372;2022-12-29T23:15:07;100243.67;;;10.14;84.53
12073;BME280;6098;49.004;8.372;2022-12-29T23:29:59;100257.43;;;10.12;84.23
12073;BME280;6098;49.004;8.372;2022-12-29T23:44:50;100256.30;;;10.06;83.41
12073;BME280;6098;49.004;8.372;2022-12-29T23:59:41;100249.19;;;9.96;84.28
